sensor_id;sensor_type;location;lat;lon;timestamp;P1;durP1;ratioP1;P2;durP2;ratioP2
41556;SDS011;27720;51.992;5.890;2022-10-15T00:02:16;19.67;;;9.18;;
41556;SDS011;27720;51.992;5.890;2022-10-15T00:04:57;17.15;;;9.48;;
41556;SDS011;27720;51.992;5.890;2022-10-15T00:07:27;15.77;;;8.80;;
41556;SDS011;27720;51.992;5.890;2022-10-15T00:10:05;16.13;;;9.30;;
41556;SDS011;27720;51.992;5.890;2022-10-15T00:12:33;17.58;;;9.23;;
41556;SDS011;27720;51.992;5.890;2022-10-15T00:14:59;16.55;;;8.95;;
41556;SDS011;27720;51.992;5.890;2022-10-15T00:17:30;20.50;;;8.77;;
41556;SDS011;27720;51.992;5.890;2022-10-15T00:19:59;15.13;;;8.07;;
41556;SDS011;27720;51.992;5.890;2022-10-15T00:22:36;16.70;;;8.52;;
41556;SDS011;27720;51.992;5.890;2022-10-15T00:25:08;16.98;;;8.52;;
41556;SDS011;27720;51.992;5.890;2022-10-15T00:27:36;17.85;;;9.05;;
41556;SDS011;27720;51.992;5.890;2022-10-15T00:30:05;16.88;;;9.18;;
41556;SDS011;27720;51.992;5.890;2022-10-15T00:32:31;18.33;;;9.10;;
41556;SDS011;27720;51.992;5.890;2022-10-15T00:42:50;11.30;;;7.80;;
41556;SDS011;27720;51.992;5.890;2022-10-15T00:45:16;13.02;;;8.30;;
41556;SDS011;27720;51.992;5.890;2022-10-15T00:47:46;12.27;;;7.80;;
41556;SDS011;27720;51.992;5.890;2022-10-15T00:50:20;20.38;;;8.60;;
41556;SDS011;27720;51.992;5.890;2022-10-15T00:58:14;15.30;;;8.07;;
41556;SDS011;27720;51.992;5.890;2022-10-15T01:00:44;12.27;;;7.70;;
41556;SDS011;27720;51.992;5.890;2022-10-15T01:03:09;13.90;;;8.60;;
41556;SDS011;27720;51.992;5.890;2022-10-15T01:05:37;13.65;;;7.90;;
41556;SDS011;27720;51.992;5.890;2022-10-15T01:13:15;14.20;;;8.63;;
41556;SDS011;27720;51.992;5.890;2022-10-15T01:16:20;12.80;;;8.10;;
41556;SDS011;27720;51.992;5.890;2022-10-15T01:21:34;14.30;;;7.50;;
41556;SDS011;27720;51.992;5.890;2022-10-15T01:24:25;13.15;;;7.30;;
41556;SDS011;27720;51.992;5.890;2022-10-15T01:27:14;15.15;;;7.68;;
41556;SDS011;27720;51.992;5.890;2022-10-15T01:30:34;13.35;;;8.15;;
41556;SDS011;27720;51.992;5.890;2022-10-15T01:33:14;12.50;;;8.00;;
41556;SDS011;27720;51.992;5.890;2022-10-15T01:35:50;15.63;;;7.60;;
41556;SDS011;27720;51.992;5.890;2022-10-15T01:39:09;14.07;;;7.43;;
41556;SDS011;27720;51.992;5.890;2022-10-15T01:41:44;14.35;;;8.02;;
41556;SDS011;27720;51.992;5.890;2022-10-15T01:47:25;14.30;;;7.80;;
41556;SDS011;27720;51.992;5.890;2022-10-15T01:50:08;11.63;;;7.13;;
41556;SDS011;27720;51.992;5.890;2022-10-15T01:52:37;15.48;;;8.07;;
41556;SDS011;27720;51.992;5.890;2022-10-15T01:55:06;16.63;;;8.38;;
41556;SDS011;27720;51.992;5.890;2022-10-15T01:57:36;14.38;;;7.80;;
41556;SDS011;27720;51.992;5.890;2022-10-15T02:00:05;15.60;;;7.30;;
41556;SDS011;27720;51.992;5.890;2022-10-15T02:02:40;14.05;;;8.43;;
41556;SDS011;27720;51.992;5.890;2022-10-15T02:05:19;16.98;;;8.98;;
41556;SDS011;27720;51.992;5.890;2022-10-15T02:07:59;16.50;;;9.20;;
41556;SDS011;27720;51.992;5.890;2022-10-15T02:10:47;13.32;;;8.40;;
41556;SDS011;27720;51.992;5.890;2022-10-15T02:18:51;20.50;;;8.38;;
41556;SDS011;27720;51.992;5.890;2022-10-15T02:21:20;13.63;;;9.05;;
41556;SDS011;27720;51.992;5.890;2022-10-15T02:23:55;20.25;;;8.98;;
41556;SDS011;27720;51.992;5.890;2022-10-15T02:26:35;16.27;;;9.82;;
41556;SDS011;27720;51.992;5.890;2022-10-15T02:29:04;16.08;;;8.23;;
41556;SDS011;27720;51.992;5.890;2022-10-15T02:31:32;19.73;;;9.48;;
41556;SDS011;27720;51.992;5.890;2022-10-15T02:34:06;14.90;;;9.05;;
41556;SDS011;27720;51.992;5.890;2022-10-15T02:36:37;18.48;;;9.73;;
41556;SDS011;27720;51.992;5.890;2022-10-15T02:39:05;21.10;;;10.47;;
41556;SDS011;27720;51.992;5.890;2022-10-15T02:41:33;17.70;;;8.70;;
41556;SDS011;27720;51.992;5.890;2022-10-15T02:44:01;16.45;;;9.70;;
41556;SDS011;27720;51.992;5.890;2022-10-15T02:46:28;17.30;;;9.82;;
41556;SDS011;27720;51.992;5.890;2022-10-15T02:48:54;19.42;;;10.48;;
41556;SDS011;27720;51.992;5.890;2022-10-15T02:51:19;19.48;;;10.10;;
41556;SDS011;27720;51.992;5.890;2022-10-15T02:53:45;22.58;;;9.98;;
41556;SDS011;27720;51.992;5.890;2022-10-15T02:56:11;18.90;;;9.40;;
41556;SDS011;27720;51.992;5.890;2022-10-15T02:58:36;19.15;;;9.55;;
41556;SDS011;27720;51.992;5.890;2022-10-15T03:01:03;18.27;;;9.63;;
41556;SDS011;27720;51.992;5.890;2022-10-15T03:03:29;20.48;;;9.57;;
41556;SDS011;27720;51.992;5.890;2022-10-15T03:05:55;19.55;;;10.23;;
41556;SDS011;27720;51.992;5.890;2022-10-15T03:08:21;17.30;;;9.40;;
41556;SDS011;27720;51.992;5.890;2022-10-15T03:10:46;17.98;;;9.05;;
41556;SDS011;27720;51.992;5.890;2022-10-15T03:13:12;18.45;;;9.57;;
41556;SDS011;27720;51.992;5.890;2022-10-15T03:15:45;16.85;;;8.80;;
41556;SDS011;27720;51.992;5.890;2022-10-15T03:18:12;17.67;;;9.25;;
41556;SDS011;27720;51.992;5.890;2022-10-15T03:20:39;19.60;;;10.55;;
41556;SDS011;27720;51.992;5.890;2022-10-15T03:23:05;16.98;;;9.75;;
41556;SDS011;27720;51.992;5.890;2022-10-15T03:25:31;19.25;;;10.45;;
41556;SDS011;27720;51.992;5.890;2022-10-15T03:28:00;18.10;;;8.48;;
41556;SDS011;27720;51.992;5.890;2022-10-15T03:30:38;19.77;;;9.88;;
41556;SDS011;27720;51.992;5.890;2022-10-15T03:33:05;18.52;;;9.05;;
41556;SDS011;27720;51.992;5.890;2022-10-15T03:35:31;17.95;;;9.20;;
41556;SDS011;27720;51.992;5.890;2022-10-15T03:37:57;18.92;;;9.40;;
41556;SDS011;27720;51.992;5.890;2022-10-15T03:40:23;17.63;;;9.45;;
41556;SDS011;27720;51.992;5.890;2022-10-15T03:42:52;20.42;;;9.32;;
41556;SDS011;27720;51.992;5.890;2022-10-15T03:45:22;19.57;;;9.37;;
41556;SDS011;27720;51.992;5.890;2022-10-15T03:48:00;22.08;;;10.43;;
41556;SDS011;27720;51.992;5.890;2022-10-15T03:50:30;20.02;;;9.85;;
41556;SDS011;27720;51.992;5.890;2022-10-15T03:53:03;18.33;;;10.38;;
41556;SDS011;27720;51.992;5.890;2022-10-15T03:55:29;19.70;;;9.90;;
41556;SDS011;27720;51.992;5.890;2022-10-15T03:57:57;24.58;;;10.10;;
41556;SDS011;27720;51.992;5.890;2022-10-15T04:00:23;18.60;;;10.68;;
41556;SDS011;27720;51.992;5.890;2022-10-15T04:02:53;21.35;;;10.40;;
41556;SDS011;27720;51.992;5.890;2022-10-15T04:07:55;20.40;;;9.17;;
41556;SDS011;27720;51.992;5.890;2022-10-15T04:10:22;22.60;;;10.00;;
41556;SDS011;27720;51.992;5.890;2022-10-15T04:12:48;21.25;;;9.90;;
41556;SDS011;27720;51.992;5.890;2022-10-15T04:15:15;19.52;;;9.45;;
41556;SDS011;27720;51.992;5.890;2022-10-15T04:17:48;19.55;;;9.15;;
41556;SDS011;27720;51.992;5.890;2022-10-15T04:22:44;20.15;;;9.13;;
41556;SDS011;27720;51.992;5.890;2022-10-15T04:25:11;20.25;;;10.07;;
41556;SDS011;27720;51.992;5.890;2022-10-15T04:27:37;17.70;;;8.95;;
41556;SDS011;27720;51.992;5.890;2022-10-15T04:30:07;21.33;;;10.60;;
41556;SDS011;27720;51.992;5.890;2022-10-15T04:32:36;20.65;;;9.52;;
41556;SDS011;27720;51.992;5.890;2022-10-15T04:35:02;20.20;;;9.82;;
41556;SDS011;27720;51.992;5.890;2022-10-15T04:37:47;20.75;;;9.65;;
41556;SDS011;27720;51.992;5.890;2022-10-15T04:40:13;19.33;;;9.90;;
41556;SDS011;27720;51.992;5.890;2022-10-15T04:42:39;18.08;;;9.80;;
41556;SDS011;27720;51.992;5.890;2022-10-15T04:45:06;16.98;;;9.85;;
41556;SDS011;27720;51.992;5.890;2022-10-15T04:47:32;16.92;;;8.98;;
41556;SDS011;27720;51.992;5.890;2022-10-15T04:50:11;19.58;;;9.40;;
41556;SDS011;27720;51.992;5.890;2022-10-15T04:52:55;19.83;;;8.38;;
41556;SDS011;27720;51.992;5.890;2022-10-15T04:55:26;21.05;;;9.25;;
41556;SDS011;27720;51.992;5.890;2022-10-15T05:00:27;17.70;;;9.88;;
41556;SDS011;27720;51.992;5.890;2022-10-15T05:03:25;19.00;;;9.73;;
41556;SDS011;27720;51.992;5.890;2022-10-15T05:05:59;20.23;;;9.38;;
41556;SDS011;27720;51.992;5.890;2022-10-15T05:11:04;19.50;;;9.13;;
41556;SDS011;27720;51.992;5.890;2022-10-15T05:13:31;16.75;;;9.18;;
41556;SDS011;27720;51.992;5.890;2022-10-15T05:16:15;16.00;;;9.02;;
41556;SDS011;27720;51.992;5.890;2022-10-15T05:18:44;15.43;;;8.75;;
41556;SDS011;27720;51.992;5.890;2022-10-15T05:21:13;18.52;;;10.07;;
41556;SDS011;27720;51.992;5.890;2022-10-15T05:23:40;17.33;;;8.48;;
41556;SDS011;27720;51.992;5.890;2022-10-15T05:26:27;17.40;;;8.98;;
41556;SDS011;27720;51.992;5.890;2022-10-15T05:28:54;20.02;;;9.40;;
41556;SDS011;27720;51.992;5.890;2022-10-15T05:31:27;17.80;;;9.68;;
41556;SDS011;27720;51.992;5.890;2022-10-15T05:34:06;20.02;;;9.57;;
41556;SDS011;27720;51.992;5.890;2022-10-15T05:36:39;17.17;;;9.40;;
41556;SDS011;27720;51.992;5.890;2022-10-15T05:39:08;20.20;;;9.13;;
41556;SDS011;27720;51.992;5.890;2022-10-15T05:41:40;19.70;;;9.77;;
41556;SDS011;27720;51.992;5.890;2022-10-15T05:44:07;20.95;;;10.60;;
41556;SDS011;27720;51.992;5.890;2022-10-15T05:46:32;21.10;;;10.18;;
41556;SDS011;27720;51.992;5.890;2022-10-15T05:49:01;20.00;;;9.75;;
41556;SDS011;27720;51.992;5.890;2022-10-15T05:51:29;22.52;;;10.25;;
41556;SDS011;27720;51.992;5.890;2022-10-15T05:54:01;17.98;;;9.45;;
41556;SDS011;27720;51.992;5.890;2022-10-15T05:56:27;19.35;;;10.05;;
41556;SDS011;27720;51.992;5.890;2022-10-15T05:58:53;19.30;;;9.65;;
41556;SDS011;27720;51.992;5.890;2022-10-15T06:01:20;20.80;;;10.73;;
41556;SDS011;27720;51.992;5.890;2022-10-15T06:03:49;20.48;;;9.63;;
41556;SDS011;27720;51.992;5.890;2022-10-15T06:06:19;16.73;;;9.88;;
41556;SDS011;27720;51.992;5.890;2022-10-15T06:08:47;18.17;;;9.10;;
41556;SDS011;27720;51.992;5.890;2022-10-15T06:11:13;18.50;;;9.77;;
41556;SDS011;27720;51.992;5.890;2022-10-15T06:13:40;25.48;;;11.93;;
41556;SDS011;27720;51.992;5.890;2022-10-15T06:16:07;18.42;;;10.10;;
41556;SDS011;27720;51.992;5.890;2022-10-15T06:18:34;21.33;;;11.43;;
41556;SDS011;27720;51.992;5.890;2022-10-15T06:21:01;21.63;;;10.48;;
41556;SDS011;27720;51.992;5.890;2022-10-15T06:23:26;22.52;;;11.02;;
41556;SDS011;27720;51.992;5.890;2022-10-15T06:25:52;32.75;;;13.82;;
41556;SDS011;27720;51.992;5.890;2022-10-15T06:28:18;21.80;;;10.57;;
41556;SDS011;27720;51.992;5.890;2022-10-15T06:30:43;25.23;;;11.85;;
41556;SDS011;27720;51.992;5.890;2022-10-15T06:33:09;22.80;;;10.50;;
41556;SDS011;27720;51.992;5.890;2022-10-15T06:35:36;22.98;;;11.00;;
41556;SDS011;27720;51.992;5.890;2022-10-15T06:38:02;28.17;;;11.40;;
41556;SDS011;27720;51.992;5.890;2022-10-15T06:40:29;21.75;;;10.82;;
41556;SDS011;27720;51.992;5.890;2022-10-15T06:42:55;16.00;;;8.55;;
41556;SDS011;27720;51.992;5.890;2022-10-15T06:45:27;21.83;;;11.02;;
41556;SDS011;27720;51.992;5.890;2022-10-15T06:47:52;23.52;;;10.90;;
41556;SDS011;27720;51.992;5.890;2022-10-15T06:50:18;22.65;;;10.93;;
41556;SDS011;27720;51.992;5.890;2022-10-15T06:52:44;31.42;;;13.40;;
41556;SDS011;27720;51.992;5.890;2022-10-15T06:55:09;30.95;;;11.95;;
41556;SDS011;27720;51.992;5.890;2022-10-15T06:57:35;30.27;;;14.00;;
41556;SDS011;27720;51.992;5.890;2022-10-15T07:00:01;25.00;;;11.38;;
41556;SDS011;27720;51.992;5.890;2022-10-15T07:02:27;26.75;;;11.45;;
41556;SDS011;27720;51.992;5.890;2022-10-15T07:04:53;28.38;;;12.95;;
41556;SDS011;27720;51.992;5.890;2022-10-15T07:07:21;24.85;;;10.23;;
41556;SDS011;27720;51.992;5.890;2022-10-15T07:09:46;25.60;;;11.07;;
41556;SDS011;27720;51.992;5.890;2022-10-15T07:12:17;22.77;;;10.25;;
41556;SDS011;27720;51.992;5.890;2022-10-15T07:14:42;24.30;;;9.65;;
41556;SDS011;27720;51.992;5.890;2022-10-15T07:17:08;21.17;;;10.63;;
41556;SDS011;27720;51.992;5.890;2022-10-15T07:19:34;20.40;;;10.02;;
41556;SDS011;27720;51.992;5.890;2022-10-15T07:21:59;21.42;;;9.60;;
41556;SDS011;27720;51.992;5.890;2022-10-15T07:24:25;22.80;;;9.88;;
41556;SDS011;27720;51.992;5.890;2022-10-15T07:26:51;29.55;;;12.95;;
41556;SDS011;27720;51.992;5.890;2022-10-15T07:29:17;30.10;;;14.40;;
41556;SDS011;27720;51.992;5.890;2022-10-15T07:31:44;30.33;;;14.57;;
41556;SDS011;27720;51.992;5.890;2022-10-15T07:34:12;26.33;;;12.07;;
41556;SDS011;27720;51.992;5.890;2022-10-15T07:36:38;26.70;;;11.63;;
41556;SDS011;27720;51.992;5.890;2022-10-15T07:39:05;23.73;;;11.43;;
41556;SDS011;27720;51.992;5.890;2022-10-15T07:41:31;20.98;;;9.70;;
41556;SDS011;27720;51.992;5.890;2022-10-15T07:43:56;18.27;;;8.50;;
41556;SDS011;27720;51.992;5.890;2022-10-15T07:46:22;23.40;;;9.20;;
41556;SDS011;27720;51.992;5.890;2022-10-15T07:48:53;24.35;;;9.82;;
41556;SDS011;27720;51.992;5.890;2022-10-15T07:51:19;20.98;;;9.68;;
41556;SDS011;27720;51.992;5.890;2022-10-15T07:53:44;22.45;;;10.45;;
41556;SDS011;27720;51.992;5.890;2022-10-15T07:56:12;23.67;;;9.65;;
41556;SDS011;27720;51.992;5.890;2022-10-15T07:58:39;31.48;;;13.95;;
41556;SDS011;27720;51.992;5.890;2022-10-15T08:01:07;25.55;;;11.80;;
41556;SDS011;27720;51.992;5.890;2022-10-15T08:03:35;40.38;;;16.38;;
41556;SDS011;27720;51.992;5.890;2022-10-15T08:06:02;34.90;;;14.40;;
41556;SDS011;27720;51.992;5.890;2022-10-15T08:08:28;29.02;;;12.45;;
41556;SDS011;27720;51.992;5.890;2022-10-15T08:10:54;24.80;;;12.48;;
41556;SDS011;27720;51.992;5.890;2022-10-15T08:13:21;21.67;;;10.23;;
41556;SDS011;27720;51.992;5.890;2022-10-15T08:15:48;23.23;;;10.55;;
41556;SDS011;27720;51.992;5.890;2022-10-15T08:18:14;26.35;;;10.52;;
41556;SDS011;27720;51.992;5.890;2022-10-15T08:20:40;25.95;;;11.63;;
41556;SDS011;27720;51.992;5.890;2022-10-15T08:23:12;27.65;;;11.85;;
41556;SDS011;27720;51.992;5.890;2022-10-15T08:25:40;28.70;;;12.38;;
41556;SDS011;27720;51.992;5.890;2022-10-15T08:28:06;24.23;;;10.80;;
41556;SDS011;27720;51.992;5.890;2022-10-15T08:30:34;24.55;;;11.32;;
41556;SDS011;27720;51.992;5.890;2022-10-15T08:33:06;21.92;;;10.63;;
41556;SDS011;27720;51.992;5.890;2022-10-15T08:35:32;24.92;;;11.13;;
41556;SDS011;27720;51.992;5.890;2022-10-15T08:38:01;23.33;;;10.52;;
41556;SDS011;27720;51.992;5.890;2022-10-15T08:40:27;23.63;;;10.30;;
41556;SDS011;27720;51.992;5.890;2022-10-15T08:42:53;27.27;;;11.85;;
41556;SDS011;27720;51.992;5.890;2022-10-15T08:50:39;27.33;;;12.48;;
41556;SDS011;27720;51.992;5.890;2022-10-15T08:53:23;25.42;;;12.68;;
41556;SDS011;27720;51.992;5.890;2022-10-15T08:55:53;26.10;;;12.00;;
41556;SDS011;27720;51.992;5.890;2022-10-15T09:03:54;25.58;;;11.38;;
41556;SDS011;27720;51.992;5.890;2022-10-15T09:14:36;20.95;;;11.60;;
41556;SDS011;27720;51.992;5.890;2022-10-15T09:17:19;25.02;;;11.55;;
41556;SDS011;27720;51.992;5.890;2022-10-15T09:19:51;21.27;;;11.07;;
41556;SDS011;27720;51.992;5.890;2022-10-15T09:22:25;26.95;;;11.57;;
41556;SDS011;27720;51.992;5.890;2022-10-15T09:24:52;24.08;;;10.98;;
41556;SDS011;27720;51.992;5.890;2022-10-15T09:33:02;21.73;;;10.45;;
41556;SDS011;27720;51.992;5.890;2022-10-15T09:43:46;15.48;;;9.10;;
41556;SDS011;27720;51.992;5.890;2022-10-15T09:46:15;18.88;;;9.68;;
41556;SDS011;27720;51.992;5.890;2022-10-15T09:48:49;20.58;;;8.85;;
41556;SDS011;27720;51.992;5.890;2022-10-15T09:56:58;20.52;;;9.15;;
41556;SDS011;27720;51.992;5.890;2022-10-15T09:59:25;16.08;;;8.20;;
41556;SDS011;27720;51.992;5.890;2022-10-15T10:04:41;16.92;;;7.40;;
41556;SDS011;27720;51.992;5.890;2022-10-15T10:07:07;13.55;;;7.20;;
41556;SDS011;27720;51.992;5.890;2022-10-15T10:09:51;13.20;;;6.32;;
41556;SDS011;27720;51.992;5.890;2022-10-15T10:12:20;10.60;;;5.65;;
41556;SDS011;27720;51.992;5.890;2022-10-15T10:17:19;13.25;;;6.90;;
41556;SDS011;27720;51.992;5.890;2022-10-15T10:20:03;12.93;;;6.57;;
41556;SDS011;27720;51.992;5.890;2022-10-15T10:25:21;15.27;;;7.07;;
41556;SDS011;27720;51.992;5.890;2022-10-15T10:27:51;15.50;;;6.70;;
41556;SDS011;27720;51.992;5.890;2022-10-15T10:30:18;13.40;;;6.93;;
41556;SDS011;27720;51.992;5.890;2022-10-15T10:32:47;11.43;;;5.93;;
41556;SDS011;27720;51.992;5.890;2022-10-15T10:35:20;11.77;;;5.93;;
41556;SDS011;27720;51.992;5.890;2022-10-15T10:37:47;9.57;;;5.22;;
41556;SDS011;27720;51.992;5.890;2022-10-15T10:40:29;15.95;;;5.25;;
41556;SDS011;27720;51.992;5.890;2022-10-15T10:43:14;16.27;;;5.47;;
41556;SDS011;27720;51.992;5.890;2022-10-15T10:45:55;10.55;;;5.40;;
41556;SDS011;27720;51.992;5.890;2022-10-15T10:48:26;10.57;;;5.22;;
41556;SDS011;27720;51.992;5.890;2022-10-15T10:51:07;14.60;;;7.10;;
41556;SDS011;27720;51.992;5.890;2022-10-15T10:53:41;11.85;;;5.05;;
41556;SDS011;27720;51.992;5.890;2022-10-15T10:56:24;17.38;;;8.00;;
41556;SDS011;27720;51.992;5.890;2022-10-15T11:01:47;16.55;;;7.35;;
41556;SDS011;27720;51.992;5.890;2022-10-15T11:04:25;14.48;;;6.97;;
41556;SDS011;27720;51.992;5.890;2022-10-15T11:15:19;12.32;;;6.32;;
41556;SDS011;27720;51.992;5.890;2022-10-15T11:31:39;10.98;;;5.22;;
41556;SDS011;27720;51.992;5.890;2022-10-15T12:00:50;7.13;;;4.03;;
41556;SDS011;27720;51.992;5.890;2022-10-15T12:03:23;6.38;;;3.00;;
41556;SDS011;27720;51.992;5.890;2022-10-15T12:06:02;5.60;;;3.20;;
41556;SDS011;27720;51.992;5.890;2022-10-15T12:08:33;6.18;;;2.90;;
41556;SDS011;27720;51.992;5.890;2022-10-15T12:19:18;7.10;;;3.85;;
41556;SDS011;27720;51.992;5.890;2022-10-15T12:29:47;5.45;;;2.47;;
41556;SDS011;27720;51.992;5.890;2022-10-15T12:32:20;4.85;;;3.25;;
41556;SDS011;27720;51.992;5.890;2022-10-15T12:35:05;5.30;;;3.47;;
41556;SDS011;27720;51.992;5.890;2022-10-15T12:37:47;5.05;;;3.00;;
41556;SDS011;27720;51.992;5.890;2022-10-15T12:42:50;5.35;;;2.20;;
41556;SDS011;27720;51.992;5.890;2022-10-15T12:45:32;4.82;;;3.20;;
41556;SDS011;27720;51.992;5.890;2022-10-15T12:53:46;4.68;;;2.63;;
41556;SDS011;27720;51.992;5.890;2022-10-15T12:58:46;4.53;;;3.08;;
41556;SDS011;27720;51.992;5.890;2022-10-15T13:06:20;3.15;;;2.35;;
41556;SDS011;27720;51.992;5.890;2022-10-15T13:11:20;5.68;;;2.83;;
41556;SDS011;27720;51.992;5.890;2022-10-15T13:14:14;3.80;;;2.58;;
41556;SDS011;27720;51.992;5.890;2022-10-15T13:17:03;7.80;;;3.30;;
41556;SDS011;27720;51.992;5.890;2022-10-15T13:19:37;5.03;;;3.00;;
41556;SDS011;27720;51.992;5.890;2022-10-15T13:22:20;4.72;;;3.40;;
41556;SDS011;27720;51.992;5.890;2022-10-15T13:24:48;3.40;;;1.98;;
41556;SDS011;27720;51.992;5.890;2022-10-15T13:27:21;7.85;;;3.33;;
41556;SDS011;27720;51.992;5.890;2022-10-15T13:29:58;6.47;;;3.80;;
41556;SDS011;27720;51.992;5.890;2022-10-15T13:32:25;4.78;;;2.85;;
41556;SDS011;27720;51.992;5.890;2022-10-15T13:34:53;4.18;;;2.58;;
41556;SDS011;27720;51.992;5.890;2022-10-15T13:37:31;4.18;;;2.83;;
41556;SDS011;27720;51.992;5.890;2022-10-15T13:40:00;5.03;;;2.60;;
41556;SDS011;27720;51.992;5.890;2022-10-15T13:42:28;4.25;;;2.45;;
41556;SDS011;27720;51.992;5.890;2022-10-15T13:50:11;4.55;;;2.72;;
41556;SDS011;27720;51.992;5.890;2022-10-15T13:52:40;7.25;;;3.03;;
41556;SDS011;27720;51.992;5.890;2022-10-15T13:55:14;4.18;;;2.92;;
41556;SDS011;27720;51.992;5.890;2022-10-15T13:57:45;6.50;;;3.85;;
41556;SDS011;27720;51.992;5.890;2022-10-15T14:05:40;5.32;;;3.10;;
41556;SDS011;27720;51.992;5.890;2022-10-15T14:08:14;7.88;;;3.28;;
41556;SDS011;27720;51.992;5.890;2022-10-15T14:10:44;6.75;;;3.53;;
41556;SDS011;27720;51.992;5.890;2022-10-15T14:13:11;7.30;;;4.93;;
41556;SDS011;27720;51.992;5.890;2022-10-15T14:15:45;6.57;;;4.40;;
41556;SDS011;27720;51.992;5.890;2022-10-15T14:18:24;7.93;;;5.32;;
41556;SDS011;27720;51.992;5.890;2022-10-15T14:20:59;6.80;;;3.88;;
41556;SDS011;27720;51.992;5.890;2022-10-15T14:23:26;8.88;;;4.72;;
41556;SDS011;27720;51.992;5.890;2022-10-15T14:25:53;6.63;;;4.15;;
41556;SDS011;27720;51.992;5.890;2022-10-15T14:28:21;5.35;;;3.75;;
41556;SDS011;27720;51.992;5.890;2022-10-15T14:30:49;6.47;;;4.28;;
41556;SDS011;27720;51.992;5.890;2022-10-15T14:36:11;6.75;;;3.75;;
41556;SDS011;27720;51.992;5.890;2022-10-15T14:38:43;5.07;;;3.33;;
41556;SDS011;27720;51.992;5.890;2022-10-15T14:46:38;6.45;;;4.00;;
41556;SDS011;27720;51.992;5.890;2022-10-15T15:36:13;3.83;;;2.08;;
41556;SDS011;27720;51.992;5.890;2022-10-15T15:38:40;5.32;;;2.60;;
41556;SDS011;27720;51.992;5.890;2022-10-15T15:43:47;3.58;;;1.75;;
41556;SDS011;27720;51.992;5.890;2022-10-15T15:46:19;4.20;;;1.90;;
41556;SDS011;27720;51.992;5.890;2022-10-15T15:48:50;4.85;;;2.08;;
41556;SDS011;27720;51.992;5.890;2022-10-15T15:51:48;2.92;;;1.85;;
41556;SDS011;27720;51.992;5.890;2022-10-15T15:54:30;5.18;;;1.73;;
41556;SDS011;27720;51.992;5.890;2022-10-15T15:57:11;3.88;;;1.95;;
41556;SDS011;27720;51.992;5.890;2022-10-15T15:59:39;2.72;;;1.25;;
41556;SDS011;27720;51.992;5.890;2022-10-15T16:02:15;2.17;;;1.17;;
41556;SDS011;27720;51.992;5.890;2022-10-15T16:04:43;2.63;;;1.30;;
41556;SDS011;27720;51.992;5.890;2022-10-15T16:07:12;3.00;;;1.60;;
41556;SDS011;27720;51.992;5.890;2022-10-15T16:09:45;1.98;;;1.13;;
41556;SDS011;27720;51.992;5.890;2022-10-15T16:12:15;4.25;;;1.33;;
41556;SDS011;27720;51.992;5.890;2022-10-15T16:15:04;4.55;;;1.33;;
41556;SDS011;27720;51.992;5.890;2022-10-15T16:17:53;2.00;;;1.25;;
41556;SDS011;27720;51.992;5.890;2022-10-15T16:20:32;2.20;;;1.50;;
41556;SDS011;27720;51.992;5.890;2022-10-15T16:23:03;3.22;;;1.65;;
41556;SDS011;27720;51.992;5.890;2022-10-15T16:25:46;2.92;;;1.50;;
41556;SDS011;27720;51.992;5.890;2022-10-15T16:28:12;2.72;;;1.50;;
41556;SDS011;27720;51.992;5.890;2022-10-15T16:31:11;2.58;;;1.65;;
41556;SDS011;27720;51.992;5.890;2022-10-15T16:33:41;3.03;;;1.52;;
41556;SDS011;27720;51.992;5.890;2022-10-15T16:36:13;2.78;;;1.50;;
41556;SDS011;27720;51.992;5.890;2022-10-15T16:39:09;2.75;;;1.58;;
41556;SDS011;27720;51.992;5.890;2022-10-15T16:41:52;2.47;;;1.20;;
41556;SDS011;27720;51.992;5.890;2022-10-15T16:44:42;2.47;;;1.25;;
41556;SDS011;27720;51.992;5.890;2022-10-15T16:47:28;3.45;;;1.70;;
41556;SDS011;27720;51.992;5.890;2022-10-15T16:50:14;3.13;;;1.38;;
41556;SDS011;27720;51.992;5.890;2022-10-15T16:52:43;2.25;;;1.38;;
41556;SDS011;27720;51.992;5.890;2022-10-15T16:55:11;2.30;;;1.10;;
41556;SDS011;27720;51.992;5.890;2022-10-15T16:57:51;3.33;;;1.20;;
41556;SDS011;27720;51.992;5.890;2022-10-15T17:00:34;3.85;;;1.48;;
41556;SDS011;27720;51.992;5.890;2022-10-15T17:03:32;2.30;;;1.20;;
41556;SDS011;27720;51.992;5.890;2022-10-15T17:06:15;2.00;;;1.35;;
41556;SDS011;27720;51.992;5.890;2022-10-15T17:09:13;3.38;;;1.30;;
41556;SDS011;27720;51.992;5.890;2022-10-15T17:12:12;2.70;;;1.30;;
41556;SDS011;27720;51.992;5.890;2022-10-15T17:14:43;4.13;;;1.40;;
41556;SDS011;27720;51.992;5.890;2022-10-15T17:17:13;3.42;;;1.75;;
41556;SDS011;27720;51.992;5.890;2022-10-15T17:19:39;1.40;;;1.10;;
41556;SDS011;27720;51.992;5.890;2022-10-15T17:22:08;6.85;;;1.80;;
41556;SDS011;27720;51.992;5.890;2022-10-15T17:24:33;4.97;;;1.67;;
41556;SDS011;27720;51.992;5.890;2022-10-15T17:26:59;2.42;;;1.65;;
41556;SDS011;27720;51.992;5.890;2022-10-15T17:29:25;3.03;;;1.35;;
41556;SDS011;27720;51.992;5.890;2022-10-15T17:32:02;3.30;;;1.60;;
41556;SDS011;27720;51.992;5.890;2022-10-15T17:34:28;4.90;;;1.80;;
41556;SDS011;27720;51.992;5.890;2022-10-15T17:36:54;3.03;;;1.77;;
41556;SDS011;27720;51.992;5.890;2022-10-15T17:39:23;3.40;;;1.80;;
41556;SDS011;27720;51.992;5.890;2022-10-15T17:41:49;2.15;;;1.67;;
41556;SDS011;27720;51.992;5.890;2022-10-15T17:44:20;2.08;;;1.48;;
41556;SDS011;27720;51.992;5.890;2022-10-15T17:46:48;3.38;;;1.98;;
41556;SDS011;27720;51.992;5.890;2022-10-15T17:53:49;4.97;;;3.20;;
41556;SDS011;27720;51.992;5.890;2022-10-15T17:57:02;7.40;;;2.92;;
41556;SDS011;27720;51.992;5.890;2022-10-15T17:59:55;5.40;;;3.15;;
41556;SDS011;27720;51.992;5.890;2022-10-15T18:02:37;5.50;;;3.65;;
41556;SDS011;27720;51.992;5.890;2022-10-15T18:05:06;6.53;;;4.55;;
41556;SDS011;27720;51.992;5.890;2022-10-15T18:10:29;8.48;;;5.10;;
41556;SDS011;27720;51.992;5.890;2022-10-15T18:13:03;10.73;;;6.10;;
41556;SDS011;27720;51.992;5.890;2022-10-15T18:15:29;8.50;;;5.82;;
41556;SDS011;27720;51.992;5.890;2022-10-15T18:17:55;10.02;;;6.88;;
41556;SDS011;27720;51.992;5.890;2022-10-15T18:20:21;12.27;;;7.63;;
41556;SDS011;27720;51.992;5.890;2022-10-15T18:22:51;12.27;;;7.85;;
41556;SDS011;27720;51.992;5.890;2022-10-15T18:25:17;11.35;;;7.97;;
41556;SDS011;27720;51.992;5.890;2022-10-15T18:27:43;10.63;;;7.53;;
41556;SDS011;27720;51.992;5.890;2022-10-15T18:30:09;10.63;;;7.45;;
41556;SDS011;27720;51.992;5.890;2022-10-15T18:32:38;14.98;;;7.78;;
41556;SDS011;27720;51.992;5.890;2022-10-15T18:35:10;10.70;;;7.40;;
41556;SDS011;27720;51.992;5.890;2022-10-15T18:37:36;12.52;;;8.05;;
41556;SDS011;27720;51.992;5.890;2022-10-15T18:40:02;12.55;;;9.02;;
41556;SDS011;27720;51.992;5.890;2022-10-15T18:42:28;12.35;;;8.88;;
41556;SDS011;27720;51.992;5.890;2022-10-15T18:44:56;11.70;;;8.68;;
41556;SDS011;27720;51.992;5.890;2022-10-15T18:47:22;14.73;;;9.07;;
41556;SDS011;27720;51.992;5.890;2022-10-15T18:49:51;14.40;;;8.60;;
41556;SDS011;27720;51.992;5.890;2022-10-15T18:52:17;13.27;;;9.38;;
41556;SDS011;27720;51.992;5.890;2022-10-15T18:54:42;12.18;;;8.57;;
41556;SDS011;27720;51.992;5.890;2022-10-15T18:57:08;13.05;;;8.88;;
41556;SDS011;27720;51.992;5.890;2022-10-15T18:59:34;12.90;;;8.55;;
41556;SDS011;27720;51.992;5.890;2022-10-15T19:02:00;12.73;;;9.15;;
41556;SDS011;27720;51.992;5.890;2022-10-15T19:04:27;13.75;;;8.82;;
41556;SDS011;27720;51.992;5.890;2022-10-15T19:06:56;14.77;;;9.52;;
41556;SDS011;27720;51.992;5.890;2022-10-15T19:09:29;17.88;;;10.25;;
41556;SDS011;27720;51.992;5.890;2022-10-15T19:11:55;19.05;;;12.73;;